createdAt,value
2019-05-02T00:00:31.464Z,12.80
2019-05-02T00:03:16.396Z,11.27
2019-05-02T00:06:02.959Z,10.03
2019-05-02T00:08:57.138Z,11.20
2019-05-02T00:11:58.596Z,10.07
2019-05-02T00:14:49.661Z,10.57
2019-05-02T00:17:35.053Z,11.03
2019-05-02T00:20:28.837Z,9.23
2019-05-02T00:23:27.918Z,10.77
2019-05-02T00:26:19.070Z,10.20
2019-05-02T00:29:06.853Z,9.10
2019-05-02T00:32:01.241Z,11.07
2019-05-02T00:34:55.260Z,9.97
2019-05-02T00:37:49.529Z,8.80
2019-05-02T00:40:46.210Z,10.57
2019-05-02T00:43:34.303Z,8.60
2019-05-02T00:46:30.155Z,7.70
2019-05-02T00:49:12.565Z,9.27
2019-05-02T00:52:06.494Z,9.20
2019-05-02T00:54:55.055Z,12.37
2019-05-02T00:57:50.976Z,12.37
2019-05-02T01:01:04.917Z,8.43
2019-05-02T01:03:52.130Z,7.77
2019-05-02T01:06:38.001Z,7.90
2019-05-02T01:09:22.982Z,11.73
2019-05-02T01:12:08.827Z,9.83
2019-05-02T01:15:08.232Z,8.90
2019-05-02T01:17:50.087Z,9.30
2019-05-02T01:20:36.029Z,11.63
2019-05-02T01:23:23.055Z,10.40
2019-05-02T01:26:10.283Z,9.67
2019-05-02T01:32:39.685Z,8.70
2019-05-02T01:39:37.857Z,9.47
2019-05-02T01:42:39.609Z,9.83
2019-05-02T01:45:26.118Z,9.93
2019-05-02T01:48:11.065Z,9.00
2019-05-02T01:51:10.099Z,12.10
2019-05-02T01:53:51.789Z,12.87
2019-05-02T01:56:45.513Z,8.07
2019-05-02T01:59:33.964Z,12.20
2019-05-02T02:02:27.997Z,8.80
2019-05-02T02:05:12.795Z,12.27
2019-05-02T02:08:06.838Z,10.50
2019-05-02T02:10:43.820Z,7.87
2019-05-02T02:14:07.319Z,7.83
2019-05-02T02:16:51.913Z,15.77
2019-05-02T02:19:50.857Z,10.90
2019-05-02T02:26:49.894Z,9.70
2019-05-02T02:29:43.989Z,9.60
2019-05-02T02:32:38.438Z,10.30
2019-05-02T02:35:32.511Z,10.57
2019-05-02T02:38:17.371Z,9.07
2019-05-02T02:41:12.984Z,9.77
2019-05-02T02:44:16.831Z,10.30
2019-05-02T02:47:01.985Z,8.33
2019-05-02T02:50:02.526Z,9.80
2019-05-02T02:52:44.482Z,12.80
2019-05-02T02:55:30.087Z,9.07
2019-05-02T02:58:14.957Z,13.73
2019-05-02T03:00:59.911Z,10.93
2019-05-02T03:03:45.029Z,10.60
2019-05-02T03:06:44.875Z,9.53
2019-05-02T03:09:26.833Z,8.33
2019-05-02T03:12:41.558Z,9.03
2019-05-02T03:15:29.698Z,10.37
2019-05-02T03:18:14.933Z,10.90
2019-05-02T03:21:13.546Z,8.90
2019-05-02T03:24:03.286Z,10.43
2019-05-02T03:26:55.404Z,9.13
2019-05-02T03:29:43.767Z,8.50
2019-05-02T03:32:33.653Z,9.93
2019-05-02T03:35:30.405Z,10.77
2019-05-02T03:38:06.720Z,10.50
2019-05-02T03:41:00.710Z,12.73
2019-05-02T03:43:46.608Z,13.17
2019-05-02T03:46:31.417Z,11.47
2019-05-02T03:49:16.715Z,8.43
2019-05-02T03:52:10.681Z,10.77
2019-05-02T03:54:55.370Z,12.60
2019-05-02T03:57:42.223Z,9.97
2019-05-02T04:00:36.218Z,9.70
2019-05-02T04:03:33.937Z,11.73
2019-05-02T04:06:25.912Z,11.50
2019-05-02T04:09:10.905Z,10.30
2019-05-02T04:11:55.759Z,13.80
2019-05-02T04:14:40.240Z,10.13
2019-05-02T04:17:29.044Z,9.60
2019-05-02T04:20:12.711Z,10.47
2019-05-02T04:22:57.678Z,9.20
2019-05-02T04:25:42.518Z,10.93
2019-05-02T04:28:27.375Z,9.80
2019-05-02T04:31:12.742Z,14.67
2019-05-02T04:34:13.682Z,11.70
2019-05-02T04:37:04.092Z,10.57
2019-05-02T04:39:53.711Z,10.43
2019-05-02T04:42:39.280Z,10.97
2019-05-02T04:45:29.434Z,10.23
2019-05-02T04:48:10.442Z,10.03
2019-05-02T04:51:02.043Z,9.90
2019-05-02T04:53:50.409Z,13.40
2019-05-02T04:56:42.179Z,12.97
2019-05-02T04:59:22.873Z,12.63
2019-05-02T05:02:09.007Z,11.20
2019-05-02T05:04:54.855Z,10.00
2019-05-02T05:07:49.499Z,12.10
2019-05-02T05:10:40.762Z,10.40
2019-05-02T05:13:30.375Z,9.33
2019-05-02T05:16:15.811Z,10.50
2019-05-02T05:19:01.811Z,9.60
2019-05-02T05:21:47.682Z,10.97
2019-05-02T05:24:51.755Z,10.77
2019-05-02T05:27:37.715Z,10.93
2019-05-02T05:30:23.842Z,10.80
2019-05-02T05:33:18.367Z,10.43
2019-05-02T05:36:12.346Z,14.23
2019-05-02T05:38:58.305Z,8.03
2019-05-02T05:41:50.478Z,10.17
2019-05-02T05:44:39.963Z,9.20
2019-05-02T05:47:25.021Z,13.03
2019-05-02T05:50:10.102Z,12.57
2019-05-02T05:52:59.119Z,12.20
2019-05-02T05:55:41.806Z,12.30
2019-05-02T05:58:28.314Z,11.30
2019-05-02T06:01:12.698Z,15.53
2019-05-02T06:03:58.208Z,14.90
2019-05-02T06:06:53.985Z,14.17
2019-05-02T06:09:38.444Z,14.60
2019-05-02T06:12:26.145Z,13.30
2019-05-02T06:15:19.278Z,12.13
2019-05-02T06:18:13.242Z,17.13
2019-05-02T06:21:02.877Z,12.57
2019-05-02T06:23:36.436Z,12.67
2019-05-02T06:26:13.729Z,16.80
2019-05-02T06:29:05.111Z,15.77
2019-05-02T06:31:50.170Z,20.83
2019-05-02T06:34:47.555Z,16.50
2019-05-02T06:37:31.742Z,18.63
2019-05-02T06:40:16.239Z,15.10
2019-05-02T06:43:04.183Z,14.30
2019-05-02T06:45:48.787Z,17.13
2019-05-02T06:48:42.690Z,15.03
2019-05-02T06:51:27.410Z,16.97
2019-05-02T06:54:12.661Z,14.87
2019-05-02T06:56:58.550Z,12.70
2019-05-02T06:59:43.974Z,16.00
2019-05-02T07:02:37.893Z,16.30
2019-05-02T07:05:32.131Z,14.97
2019-05-02T07:08:26.177Z,17.63
2019-05-02T07:11:11.177Z,15.83
2019-05-02T07:14:13.100Z,13.63
2019-05-02T07:20:27.462Z,14.93
2019-05-02T07:23:16.084Z,13.57
2019-05-02T07:26:00.341Z,17.80
2019-05-02T07:28:54.229Z,16.33
2019-05-02T07:31:42.901Z,15.13
2019-05-02T07:34:25.390Z,15.03
2019-05-02T07:37:12.590Z,17.53
2019-05-02T07:39:56.378Z,21.50
2019-05-02T07:42:41.752Z,17.90
2019-05-02T07:45:28.054Z,14.10
2019-05-02T07:48:17.889Z,14.03
2019-05-02T07:50:59.053Z,13.90
2019-05-02T07:53:44.476Z,16.63
2019-05-02T07:56:30.932Z,17.03
2019-05-02T07:59:25.169Z,14.13
2019-05-02T08:02:20.237Z,14.07
2019-05-02T08:05:08.578Z,16.10
2019-05-02T08:08:01.691Z,13.67
2019-05-02T08:11:01.667Z,17.83
2019-05-02T08:13:42.305Z,15.70
2019-05-02T08:16:36.310Z,16.57
2019-05-02T08:19:30.302Z,16.13
2019-05-02T08:22:15.058Z,13.87
2019-05-02T08:25:00.683Z,16.20
2019-05-02T08:31:26.453Z,17.07
2019-05-02T08:34:14.824Z,13.93
2019-05-02T08:37:02.557Z,16.83
2019-05-02T08:39:54.405Z,13.20
2019-05-02T08:42:40.770Z,16.80
2019-05-02T08:45:38.257Z,14.70
2019-05-02T08:48:30.918Z,14.00
2019-05-02T08:51:24.829Z,14.17
2019-05-02T08:54:09.566Z,17.23
2019-05-02T08:56:59.034Z,18.23
2019-05-02T08:59:41.256Z,16.83
2019-05-02T09:02:41.509Z,17.30
2019-05-02T09:05:31.074Z,17.50
2019-05-02T09:08:31.174Z,16.13
2019-05-02T09:11:15.822Z,16.87
2019-05-02T09:14:02.081Z,16.50
2019-05-02T09:16:47.532Z,22.37
2019-05-02T09:19:42.928Z,17.27
2019-05-02T09:22:27.669Z,18.07
2019-05-02T09:25:12.798Z,17.53
2019-05-02T09:28:06.585Z,17.50
2019-05-02T09:30:52.453Z,16.27
2019-05-02T09:33:42.492Z,18.83
2019-05-02T09:36:24.113Z,16.60
2019-05-02T09:39:08.962Z,17.27
2019-05-02T09:41:53.790Z,20.77
2019-05-02T09:44:38.939Z,15.63
2019-05-02T09:47:27.489Z,17.13
2019-05-02T09:50:15.531Z,16.10
2019-05-02T09:53:01.948Z,21.33
2019-05-02T09:55:50.238Z,17.13
2019-05-02T09:58:33.989Z,15.63
2019-05-02T10:04:53.886Z,14.17
2019-05-02T10:07:48.659Z,13.03
2019-05-02T10:10:37.048Z,17.27
2019-05-02T10:13:22.719Z,13.83
2019-05-02T10:16:18.028Z,13.27
2019-05-02T10:19:13.454Z,13.97
2019-05-02T10:21:58.417Z,15.90
2019-05-02T10:24:52.536Z,13.60
2019-05-02T10:27:38.582Z,11.13
2019-05-02T10:30:25.110Z,17.20
2019-05-02T10:33:11.780Z,15.03
2019-05-02T10:35:56.766Z,13.87
2019-05-02T10:38:54.819Z,15.43
2019-05-02T10:41:39.436Z,16.07
2019-05-02T10:44:36.453Z,12.73
2019-05-02T10:47:19.338Z,14.53
2019-05-02T10:53:42.219Z,14.70
2019-05-02T10:56:27.386Z,14.30
2019-05-02T10:59:12.202Z,18.80
2019-05-02T11:02:16.374Z,16.27
2019-05-02T11:05:06.572Z,17.23
2019-05-02T11:07:52.311Z,15.67
2019-05-02T11:10:37.234Z,14.63
2019-05-02T11:20:01.907Z,19.63
2019-05-02T11:23:23.616Z,16.53
2019-05-02T11:26:08.898Z,17.33
2019-05-02T11:28:53.935Z,18.30
2019-05-02T11:31:39.372Z,16.67
2019-05-02T11:34:24.390Z,16.50
2019-05-02T11:37:08.827Z,14.97
2019-05-02T11:40:05.937Z,14.47
2019-05-02T11:42:37.209Z,13.00
2019-05-02T11:45:12.098Z,14.93
2019-05-02T11:47:46.083Z,14.63
2019-05-02T11:50:19.650Z,14.73
2019-05-02T11:52:52.901Z,14.57
2019-05-02T11:55:37.825Z,13.20
2019-05-02T11:58:23.174Z,14.27
2019-05-02T12:01:07.623Z,15.30
2019-05-02T12:03:53.059Z,16.53
2019-05-02T12:06:49.956Z,14.37
2019-05-02T12:09:34.075Z,15.80
2019-05-02T12:12:34.284Z,14.73
2019-05-02T12:15:24.034Z,12.10
2019-05-02T12:18:20.479Z,13.53
2019-05-02T12:21:04.566Z,13.53
2019-05-02T12:23:58.378Z,10.00
2019-05-02T12:26:46.402Z,10.87
2019-05-02T12:29:38.922Z,13.50
2019-05-02T12:32:43.113Z,13.60
2019-05-02T12:35:28.202Z,11.43
2019-05-02T12:38:23.076Z,12.93
2019-05-02T12:41:19.487Z,13.90
2019-05-02T12:43:55.433Z,10.83
2019-05-02T12:46:42.042Z,12.33
2019-05-02T12:49:35.501Z,11.17
2019-05-02T12:52:22.434Z,11.33
2019-05-02T12:55:07.714Z,10.33
2019-05-02T12:57:52.974Z,10.57
2019-05-02T13:00:38.383Z,8.80
2019-05-02T13:03:51.808Z,8.27
2019-05-02T13:06:52.838Z,12.97
2019-05-02T13:09:46.763Z,10.13
2019-05-02T13:12:41.758Z,9.47
2019-05-02T13:15:27.149Z,11.30
2019-05-02T13:18:12.514Z,10.07
2019-05-02T13:20:59.315Z,16.10
2019-05-02T13:27:17.201Z,11.00
2019-05-02T13:30:03.481Z,8.50
2019-05-02T13:33:07.614Z,11.77
2019-05-02T13:36:09.618Z,7.90
2019-05-02T13:38:54.448Z,10.80
2019-05-02T13:41:38.962Z,10.23
2019-05-02T13:44:29.108Z,8.90
2019-05-02T13:47:13.862Z,10.73
2019-05-02T13:50:08.846Z,11.00
2019-05-02T13:52:57.926Z,7.83
2019-05-02T13:55:46.070Z,7.63
2019-05-02T13:59:12.907Z,9.10
2019-05-02T14:01:57.577Z,10.20
2019-05-02T14:04:42.325Z,9.30
2019-05-02T14:07:27.627Z,6.70
2019-05-02T14:10:39.518Z,8.90
2019-05-02T14:13:37.324Z,9.70
2019-05-02T14:16:22.811Z,12.20
2019-05-02T14:19:16.754Z,6.67
2019-05-02T14:22:12.758Z,8.07
2019-05-02T14:25:12.255Z,11.63
2019-05-02T14:27:57.509Z,8.50
2019-05-02T14:30:46.124Z,8.93
2019-05-02T14:33:32.875Z,8.37
2019-05-02T14:36:17.854Z,12.20
2019-05-02T14:39:05.682Z,16.67
2019-05-02T14:42:15.333Z,13.70
2019-05-02T14:45:13.173Z,16.77
2019-05-02T14:47:57.282Z,13.97
2019-05-02T14:50:47.366Z,17.00
2019-05-02T14:53:43.057Z,17.27
2019-05-02T14:56:59.338Z,14.57
2019-05-02T14:59:44.870Z,16.60
2019-05-02T15:02:49.178Z,15.03
2019-05-02T15:05:59.073Z,17.07
2019-05-02T15:08:44.735Z,15.83
2019-05-02T15:11:43.048Z,16.50
2019-05-02T15:14:27.736Z,15.27
2019-05-02T15:17:22.750Z,16.27
2019-05-02T15:20:07.825Z,15.23
2019-05-02T15:22:53.208Z,17.30
2019-05-02T15:25:52.514Z,19.10
2019-05-02T15:28:45.209Z,17.63
2019-05-02T15:31:34.298Z,16.40
2019-05-02T15:34:52.922Z,12.97
2019-05-02T15:38:02.764Z,12.47
2019-05-02T15:40:50.073Z,13.33
2019-05-02T15:43:39.405Z,18.60
2019-05-02T15:46:28.104Z,12.60
2019-05-02T15:49:22.223Z,12.53
2019-05-02T15:52:07.546Z,11.67
2019-05-02T15:55:07.599Z,15.43
2019-05-02T15:58:02.641Z,13.37
2019-05-02T16:00:56.523Z,10.70
2019-05-02T16:04:03.389Z,7.97
2019-05-02T16:06:48.670Z,9.80
2019-05-02T16:09:33.262Z,6.93
2019-05-02T16:12:18.545Z,7.93
2019-05-02T16:15:07.201Z,7.37
2019-05-02T16:17:52.247Z,6.13
2019-05-02T16:21:04.848Z,10.03
2019-05-02T16:24:23.065Z,6.93
2019-05-02T16:27:08.923Z,5.07
2019-05-02T16:29:58.267Z,6.23
2019-05-02T16:32:53.815Z,14.30
2019-05-02T16:35:38.525Z,7.13
2019-05-02T16:38:26.935Z,6.63
2019-05-02T16:41:11.436Z,6.93
2019-05-02T16:43:57.048Z,8.37
2019-05-02T16:46:43.812Z,8.00
2019-05-02T16:49:37.875Z,8.33
2019-05-02T16:52:32.773Z,9.37
2019-05-02T16:55:20.788Z,8.80
2019-05-02T16:58:07.011Z,8.43
2019-05-02T17:00:50.297Z,12.90
2019-05-02T17:03:35.250Z,9.93
2019-05-02T17:06:22.355Z,9.10
2019-05-02T17:09:28.690Z,9.17
2019-05-02T17:12:15.307Z,8.97
2019-05-02T17:15:17.146Z,9.40
2019-05-02T17:18:19.601Z,8.73
2019-05-02T17:21:13.024Z,9.47
2019-05-02T17:23:57.840Z,7.83
2019-05-02T17:26:42.597Z,8.90
2019-05-02T17:29:27.983Z,7.70
2019-05-02T17:32:22.390Z,8.57
2019-05-02T17:35:16.557Z,9.17
2019-05-02T17:38:12.044Z,9.67
2019-05-02T17:41:07.953Z,8.03
2019-05-02T17:44:03.191Z,10.67
2019-05-02T17:46:59.527Z,10.90
2019-05-02T17:49:43.630Z,10.40
2019-05-02T17:52:33.658Z,12.57
2019-05-02T17:55:18.565Z,11.63
2019-05-02T17:58:11.940Z,10.70
2019-05-02T18:01:02.575Z,13.77
2019-05-02T18:04:06.844Z,13.97
2019-05-02T18:06:58.722Z,13.20
2019-05-02T18:09:44.084Z,14.13
2019-05-02T18:12:29.200Z,13.10
2019-05-02T18:15:14.271Z,13.83
2019-05-02T18:18:08.358Z,12.33
2019-05-02T18:20:53.409Z,14.73
2019-05-02T18:23:47.666Z,14.23
2019-05-02T18:26:41.231Z,13.27
2019-05-02T18:29:26.690Z,12.57
2019-05-02T18:32:24.545Z,12.33
2019-05-02T18:35:07.031Z,12.23
2019-05-02T18:37:51.921Z,14.00
2019-05-02T18:40:46.110Z,14.80
2019-05-02T18:43:43.617Z,14.07
2019-05-02T18:46:26.877Z,13.80
2019-05-02T18:49:22.008Z,12.43
2019-05-02T18:52:08.042Z,12.37
2019-05-02T18:54:52.470Z,11.80
2019-05-02T18:57:46.253Z,11.73
2019-05-02T19:00:37.546Z,14.03
2019-05-02T19:03:26.973Z,10.47
2019-05-02T19:06:11.881Z,11.83
2019-05-02T19:08:57.356Z,12.37
2019-05-02T19:11:42.462Z,12.47
2019-05-02T19:14:27.505Z,14.27
2019-05-02T19:17:12.862Z,12.47
2019-05-02T19:20:10.970Z,13.83
2019-05-02T19:22:56.818Z,10.47
2019-05-02T19:25:49.083Z,13.50
2019-05-02T19:29:03.111Z,12.00
2019-05-02T19:32:12.251Z,12.53
2019-05-02T19:35:14.791Z,11.80
2019-05-02T19:37:59.739Z,11.00
2019-05-02T19:44:08.609Z,14.73
2019-05-02T19:46:53.264Z,15.60
2019-05-02T19:49:37.804Z,17.77
2019-05-02T19:52:22.959Z,15.83
2019-05-02T19:55:14.155Z,17.43
2019-05-02T19:57:56.631Z,18.50
2019-05-02T20:00:42.217Z,19.30
2019-05-02T20:03:26.836Z,20.40
2019-05-02T20:06:12.857Z,19.17
2019-05-02T20:08:59.224Z,22.83
2019-05-02T20:11:45.062Z,24.70
2019-05-02T20:14:32.002Z,25.27
2019-05-02T20:17:25.685Z,25.27
2019-05-02T20:20:14.478Z,25.40
2019-05-02T20:23:01.613Z,27.40
2019-05-02T20:25:47.617Z,28.53
2019-05-02T20:28:32.625Z,30.20
2019-05-02T20:31:17.502Z,28.60
2019-05-02T20:34:02.658Z,30.87
2019-05-02T20:36:47.698Z,33.63
2019-05-02T20:39:41.767Z,28.57
2019-05-02T20:42:26.582Z,27.93
2019-05-02T20:45:22.656Z,26.67
2019-05-02T20:48:16.634Z,27.17
2019-05-02T20:51:12.236Z,31.07
2019-05-02T20:53:57.646Z,29.00
2019-05-02T20:56:43.218Z,27.83
2019-05-02T20:59:27.813Z,31.87
2019-05-02T21:02:12.768Z,37.67
2019-05-02T21:04:57.950Z,30.67
2019-05-02T21:08:05.323Z,31.13
2019-05-02T21:11:13.696Z,33.67
2019-05-02T21:13:59.170Z,34.87
2019-05-02T21:16:53.198Z,32.63
2019-05-02T21:19:47.374Z,33.03
2019-05-02T21:22:42.188Z,38.47
2019-05-02T21:25:37.395Z,33.50
2019-05-02T21:28:32.199Z,32.00
2019-05-02T21:31:17.051Z,31.70
2019-05-02T21:34:02.587Z,30.23
2019-05-02T21:36:47.938Z,32.87
2019-05-02T21:39:42.528Z,32.07
2019-05-02T21:42:27.647Z,37.97
2019-05-02T21:45:13.194Z,35.63
2019-05-02T21:48:07.070Z,34.67
2019-05-02T21:50:57.099Z,36.83
2019-05-02T21:54:27.021Z,34.87
2019-05-02T21:57:15.229Z,37.67
2019-05-02T22:00:02.435Z,33.83
2019-05-02T22:02:49.498Z,35.90
2019-05-02T22:05:34.266Z,34.17
2019-05-02T22:08:19.181Z,35.93
2019-05-02T22:11:04.417Z,36.53
2019-05-02T22:13:58.594Z,33.40
2019-05-02T22:16:53.173Z,35.17
2019-05-02T22:19:46.939Z,33.67
2019-05-02T22:22:42.619Z,37.90
2019-05-02T22:25:37.594Z,32.23
2019-05-02T22:28:22.501Z,33.73
2019-05-02T22:31:07.510Z,30.43
2019-05-02T22:33:52.931Z,28.23
2019-05-02T22:36:47.302Z,33.97
2019-05-02T22:42:43.526Z,32.83
2019-05-02T22:45:28.811Z,35.70
2019-05-02T22:48:22.800Z,34.97
2019-05-02T22:51:07.950Z,34.90
2019-05-02T22:54:02.933Z,36.33
2019-05-02T22:56:58.372Z,35.07
2019-05-02T22:59:43.645Z,35.13
2019-05-02T23:02:28.573Z,32.97
2019-05-02T23:05:13.181Z,34.00
2019-05-02T23:07:58.383Z,35.93
2019-05-02T23:10:43.573Z,35.77
2019-05-02T23:13:29.351Z,32.57
2019-05-02T23:16:14.247Z,32.27
2019-05-02T23:18:59.026Z,34.93
2019-05-02T23:21:44.448Z,33.03
2019-05-02T23:24:57.447Z,34.03
2019-05-02T23:27:48.982Z,34.23
2019-05-02T23:31:16.357Z,32.60
2019-05-02T23:34:10.079Z,32.80
2019-05-02T23:36:54.694Z,31.63
2019-05-02T23:39:41.703Z,31.60
2019-05-02T23:42:26.337Z,34.07
2019-05-02T23:45:20.174Z,33.40
2019-05-02T23:48:06.258Z,32.17
2019-05-02T23:50:52.117Z,33.97
2019-05-02T23:53:45.632Z,33.80
2019-05-02T23:56:32.269Z,34.93
2019-05-02T23:59:16.901Z,33.30
